world map with MWX marked

MWX - Airport

This information may not be accurate or current and is not valid for navigation or flight planning. No warranty of fitness for any purpose is made or implied.

flag of Korea (Republic of) (South Korea)

Donate via PayPal

Additional information is available on the NEW Great Circle Mapper

Location
City:  Muan, Korea (Republic of) (South Korea)
Name:Muan International Airport
ICAO / IATA:RKJB / MWX

Details
Type:Airport (Aerodrome, Airfield)
Use:Public/Civil
Latitude:34°59'29"N (34.991389)
Longitude:126°22'58"E (126.382778)
Elevation:51 ft (16 m)
Runways:1
Longest:9186 × 148 ft (2800 × 45 m)

Time
Timezone:UTC+9 (DST+11)
Local Time:

Weather
METAR:RKJB  132200Z 04007KT 9999 BKN030 00/M05 Q1034 NOSIG
TAF:RKJB  (expired)

Related Locations
Nearby:
Farthest:SUPE: 12370 mi / 19907 km
Punta el Este [El Jagüel Airport], MA, UY

Find:

   beyond  
but within

Other Information
Maps:
Sources:

  


 


Great Circle Mapper   Great Circle Mapper
Great Circle Mapper FAQ   Great Circle Mapper FAQ
  Karl's Home Page
KLS²   KLS² Home
   GC on Facebook
Airlines of the World   Airlines of the World
Donate via PayPal


Copyright © 2004-2018, Karl L. Swartz. All rights reserved.
All trademarks mentioned herein belong to their respective owners.

Please see credits for attribution and copyright information.

Karl Swartz <karl@kls2.com>
  Powered by FreeBSD
Valid HTML 4.01!
Labeled with ICRA
hCard Microformat
Geo Microformat